sensor_id;sensor_type;location;lat;lon;timestamp;P1;durP1;ratioP1;P2;durP2;ratioP2
73276;SDS011;61501;43.316;5.372;2022-11-04T00:01:33;4.65;;;2.53;;
73276;SDS011;61501;43.316;5.372;2022-11-04T00:04:01;6.13;;;2.75;;
73276;SDS011;61501;43.316;5.372;2022-11-04T00:06:27;5.25;;;2.50;;
73276;SDS011;61501;43.316;5.372;2022-11-04T00:08:54;6.18;;;2.30;;
73276;SDS011;61501;43.316;5.372;2022-11-04T00:11:20;5.18;;;2.08;;
73276;SDS011;61501;43.316;5.372;2022-11-04T00:14:06;4.80;;;2.05;;
73276;SDS011;61501;43.316;5.372;2022-11-04T00:16:32;8.57;;;2.03;;
73276;SDS011;61501;43.316;5.372;2022-11-04T00:19:17;10.20;;;2.42;;
73276;SDS011;61501;43.316;5.372;2022-11-04T00:21:42;7.68;;;3.38;;
73276;SDS011;61501;43.316;5.372;2022-11-04T00:24:27;7.57;;;2.92;;
73276;SDS011;61501;43.316;5.372;2022-11-04T00:27:11;5.50;;;1.70;;
73276;SDS011;61501;43.316;5.372;2022-11-04T00:29:58;6.13;;;1.50;;
73276;SDS011;61501;43.316;5.372;2022-11-04T00:32:23;5.10;;;1.90;;
73276;SDS011;61501;43.316;5.372;2022-11-04T00:35:09;8.60;;;2.45;;
73276;SDS011;61501;43.316;5.372;2022-11-04T00:37:39;5.35;;;2.03;;
73276;SDS011;61501;43.316;5.372;2022-11-04T00:40:06;5.65;;;1.45;;
73276;SDS011;61501;43.316;5.372;2022-11-04T00:42:33;3.17;;;1.70;;
73276;SDS011;61501;43.316;5.372;2022-11-04T00:44:58;3.13;;;0.82;;
73276;SDS011;61501;43.316;5.372;2022-11-04T00:47:24;4.88;;;1.63;;
73276;SDS011;61501;43.316;5.372;2022-11-04T00:49:50;3.22;;;1.30;;
73276;SDS011;61501;43.316;5.372;2022-11-04T00:52:15;3.40;;;1.27;;
73276;SDS011;61501;43.316;5.372;2022-11-04T00:54:41;1.95;;;1.00;;
73276;SDS011;61501;43.316;5.372;2022-11-04T00:57:10;2.83;;;1.40;;
73276;SDS011;61501;43.316;5.372;2022-11-04T00:59:36;4.47;;;1.30;;
73276;SDS011;61501;43.316;5.372;2022-11-04T01:02:03;2.75;;;1.67;;
73276;SDS011;61501;43.316;5.372;2022-11-04T01:04:29;3.67;;;1.30;;
73276;SDS011;61501;43.316;5.372;2022-11-04T01:06:55;3.42;;;1.20;;
73276;SDS011;61501;43.316;5.372;2022-11-04T01:09:21;3.13;;;1.30;;
73276;SDS011;61501;43.316;5.372;2022-11-04T01:11:47;2.72;;;1.38;;
73276;SDS011;61501;43.316;5.372;2022-11-04T01:14:12;2.60;;;1.27;;
73276;SDS011;61501;43.316;5.372;2022-11-04T01:16:38;5.88;;;1.42;;
73276;SDS011;61501;43.316;5.372;2022-11-04T01:19:05;2.55;;;1.20;;
73276;SDS011;61501;43.316;5.372;2022-11-04T01:21:30;3.05;;;1.08;;
73276;SDS011;61501;43.316;5.372;2022-11-04T01:23:56;3.58;;;1.45;;
73276;SDS011;61501;43.316;5.372;2022-11-04T01:26:24;2.42;;;1.10;;
73276;SDS011;61501;43.316;5.372;2022-11-04T01:28:51;3.30;;;1.40;;
73276;SDS011;61501;43.316;5.372;2022-11-04T01:31:19;4.05;;;1.20;;
73276;SDS011;61501;43.316;5.372;2022-11-04T01:33:49;5.85;;;1.55;;
73276;SDS011;61501;43.316;5.372;2022-11-04T01:36:16;3.08;;;1.52;;
73276;SDS011;61501;43.316;5.372;2022-11-04T01:38:42;4.75;;;2.22;;
73276;SDS011;61501;43.316;5.372;2022-11-04T01:41:08;5.00;;;1.80;;
73276;SDS011;61501;43.316;5.372;2022-11-04T01:43:51;3.85;;;1.27;;
73276;SDS011;61501;43.316;5.372;2022-11-04T01:51:41;4.47;;;2.03;;
73276;SDS011;61501;43.316;5.372;2022-11-04T01:54:09;3.33;;;1.50;;
73276;SDS011;61501;43.316;5.372;2022-11-04T01:56:35;5.25;;;1.65;;
73276;SDS011;61501;43.316;5.372;2022-11-04T01:59:04;5.82;;;1.30;;
73276;SDS011;61501;43.316;5.372;2022-11-04T02:01:35;3.30;;;1.80;;
73276;SDS011;61501;43.316;5.372;2022-11-04T02:04:00;4.43;;;1.77;;
73276;SDS011;61501;43.316;5.372;2022-11-04T02:06:46;5.78;;;1.48;;
73276;SDS011;61501;43.316;5.372;2022-11-04T02:09:13;5.03;;;1.80;;
73276;SDS011;61501;43.316;5.372;2022-11-04T02:11:41;5.18;;;1.65;;
73276;SDS011;61501;43.316;5.372;2022-11-04T02:14:25;4.35;;;1.50;;
73276;SDS011;61501;43.316;5.372;2022-11-04T02:16:51;3.83;;;1.40;;
73276;SDS011;61501;43.316;5.372;2022-11-04T02:30:51;3.35;;;1.45;;
73276;SDS011;61501;43.316;5.372;2022-11-04T02:33:36;3.22;;;1.60;;
73276;SDS011;61501;43.316;5.372;2022-11-04T02:36:25;3.10;;;1.17;;
73276;SDS011;61501;43.316;5.372;2022-11-04T02:39:04;2.50;;;1.30;;
73276;SDS011;61501;43.316;5.372;2022-11-04T02:41:51;5.07;;;1.65;;
73276;SDS011;61501;43.316;5.372;2022-11-04T02:44:46;1.83;;;1.00;;
73276;SDS011;61501;43.316;5.372;2022-11-04T02:47:24;3.03;;;1.40;;
73276;SDS011;61501;43.316;5.372;2022-11-04T02:49:56;3.63;;;1.75;;
73276;SDS011;61501;43.316;5.372;2022-11-04T02:52:26;3.90;;;2.50;;
73276;SDS011;61501;43.316;5.372;2022-11-04T02:55:04;12.77;;;11.48;;
73276;SDS011;61501;43.316;5.372;2022-11-04T02:57:34;22.27;;;19.98;;
73276;SDS011;61501;43.316;5.372;2022-11-04T03:00:04;20.83;;;18.63;;
73276;SDS011;61501;43.316;5.372;2022-11-04T03:02:33;28.75;;;25.80;;
73276;SDS011;61501;43.316;5.372;2022-11-04T03:05:08;19.38;;;17.35;;
73276;SDS011;61501;43.316;5.372;2022-11-04T03:07:39;17.73;;;14.85;;
73276;SDS011;61501;43.316;5.372;2022-11-04T03:11:07;8.15;;;7.03;;
73276;SDS011;61501;43.316;5.372;2022-11-04T03:13:09;8.48;;;6.22;;
73276;SDS011;61501;43.316;5.372;2022-11-04T03:15:56;9.15;;;6.90;;
73276;SDS011;61501;43.316;5.372;2022-11-04T03:20:59;6.18;;;2.30;;
73276;SDS011;61501;43.316;5.372;2022-11-04T03:23:26;4.70;;;1.88;;
73276;SDS011;61501;43.316;5.372;2022-11-04T03:25:54;4.20;;;1.70;;
73276;SDS011;61501;43.316;5.372;2022-11-04T03:28:43;4.18;;;1.60;;
73276;SDS011;61501;43.316;5.372;2022-11-04T03:31:21;3.72;;;1.38;;
73276;SDS011;61501;43.316;5.372;2022-11-04T03:33:51;2.83;;;1.05;;
73276;SDS011;61501;43.316;5.372;2022-11-04T03:36:19;4.95;;;1.70;;
73276;SDS011;61501;43.316;5.372;2022-11-04T03:38:47;5.32;;;2.80;;
73276;SDS011;61501;43.316;5.372;2022-11-04T03:41:16;9.57;;;7.18;;
73276;SDS011;61501;43.316;5.372;2022-11-04T03:43:47;15.32;;;13.50;;
73276;SDS011;61501;43.316;5.372;2022-11-04T03:46:12;8.05;;;4.72;;
73276;SDS011;61501;43.316;5.372;2022-11-04T03:48:38;3.58;;;1.58;;
73276;SDS011;61501;43.316;5.372;2022-11-04T03:51:07;3.85;;;1.80;;
73276;SDS011;61501;43.316;5.372;2022-11-04T03:53:33;4.47;;;1.45;;
73276;SDS011;61501;43.316;5.372;2022-11-04T03:56:08;3.83;;;1.90;;
73276;SDS011;61501;43.316;5.372;2022-11-04T04:01:31;3.25;;;1.50;;
73276;SDS011;61501;43.316;5.372;2022-11-04T04:04:08;5.63;;;2.10;;
73276;SDS011;61501;43.316;5.372;2022-11-04T04:06:36;2.60;;;1.35;;
73276;SDS011;61501;43.316;5.372;2022-11-04T04:09:25;4.60;;;1.35;;
73276;SDS011;61501;43.316;5.372;2022-11-04T04:14:26;6.75;;;1.33;;
73276;SDS011;61501;43.316;5.372;2022-11-04T04:17:05;5.22;;;1.02;;
73276;SDS011;61501;43.316;5.372;2022-11-04T04:19:51;2.75;;;1.00;;
73276;SDS011;61501;43.316;5.372;2022-11-04T04:22:33;5.57;;;1.20;;
73276;SDS011;61501;43.316;5.372;2022-11-04T04:25:19;7.22;;;1.45;;
73276;SDS011;61501;43.316;5.372;2022-11-04T04:28:09;4.18;;;1.48;;
73276;SDS011;61501;43.316;5.372;2022-11-04T04:30:38;4.30;;;1.20;;
73276;SDS011;61501;43.316;5.372;2022-11-04T04:33:07;4.82;;;1.27;;
73276;SDS011;61501;43.316;5.372;2022-11-04T04:35:38;5.88;;;1.40;;
73276;SDS011;61501;43.316;5.372;2022-11-04T04:38:12;4.53;;;1.30;;
73276;SDS011;61501;43.316;5.372;2022-11-04T04:41:09;3.65;;;1.10;;
73276;SDS011;61501;43.316;5.372;2022-11-04T04:43:59;2.83;;;1.38;;
73276;SDS011;61501;43.316;5.372;2022-11-04T04:46:46;5.93;;;2.08;;
73276;SDS011;61501;43.316;5.372;2022-11-04T04:49:13;6.47;;;1.90;;
73276;SDS011;61501;43.316;5.372;2022-11-04T04:51:44;6.93;;;2.60;;
73276;SDS011;61501;43.316;5.372;2022-11-04T04:54:11;5.20;;;1.88;;
73276;SDS011;61501;43.316;5.372;2022-11-04T04:56:37;5.45;;;2.58;;
73276;SDS011;61501;43.316;5.372;2022-11-04T04:59:03;4.97;;;1.95;;
73276;SDS011;61501;43.316;5.372;2022-11-04T05:01:29;5.15;;;1.63;;
73276;SDS011;61501;43.316;5.372;2022-11-04T05:03:59;3.75;;;1.42;;
73276;SDS011;61501;43.316;5.372;2022-11-04T05:06:24;5.07;;;1.52;;
73276;SDS011;61501;43.316;5.372;2022-11-04T05:08:50;5.85;;;1.60;;
73276;SDS011;61501;43.316;5.372;2022-11-04T05:11:16;4.32;;;1.48;;
73276;SDS011;61501;43.316;5.372;2022-11-04T05:13:41;3.83;;;1.60;;
73276;SDS011;61501;43.316;5.372;2022-11-04T05:16:10;5.35;;;1.35;;
73276;SDS011;61501;43.316;5.372;2022-11-04T05:18:36;4.07;;;1.63;;
73276;SDS011;61501;43.316;5.372;2022-11-04T05:21:05;5.00;;;1.52;;
73276;SDS011;61501;43.316;5.372;2022-11-04T05:23:34;3.17;;;1.10;;
73276;SDS011;61501;43.316;5.372;2022-11-04T05:26:00;6.82;;;2.33;;
73276;SDS011;61501;43.316;5.372;2022-11-04T05:28:25;5.63;;;1.50;;
73276;SDS011;61501;43.316;5.372;2022-11-04T05:30:51;3.42;;;1.42;;
73276;SDS011;61501;43.316;5.372;2022-11-04T05:33:17;3.40;;;1.40;;
73276;SDS011;61501;43.316;5.372;2022-11-04T05:35:42;2.85;;;1.40;;
73276;SDS011;61501;43.316;5.372;2022-11-04T05:38:08;5.32;;;1.65;;
73276;SDS011;61501;43.316;5.372;2022-11-04T05:40:34;4.55;;;1.77;;
73276;SDS011;61501;43.316;5.372;2022-11-04T05:42:59;6.07;;;1.70;;
73276;SDS011;61501;43.316;5.372;2022-11-04T05:45:28;6.70;;;1.92;;
73276;SDS011;61501;43.316;5.372;2022-11-04T05:47:58;9.73;;;2.00;;
73276;SDS011;61501;43.316;5.372;2022-11-04T05:50:23;6.25;;;1.88;;
73276;SDS011;61501;43.316;5.372;2022-11-04T05:52:49;5.35;;;1.58;;
73276;SDS011;61501;43.316;5.372;2022-11-04T05:55:15;5.82;;;1.70;;
73276;SDS011;61501;43.316;5.372;2022-11-04T05:57:40;5.63;;;1.70;;
73276;SDS011;61501;43.316;5.372;2022-11-04T06:00:06;8.02;;;1.90;;
73276;SDS011;61501;43.316;5.372;2022-11-04T06:02:32;5.50;;;1.80;;
73276;SDS011;61501;43.316;5.372;2022-11-04T06:04:58;8.82;;;1.80;;
73276;SDS011;61501;43.316;5.372;2022-11-04T06:07:23;6.53;;;1.85;;
73276;SDS011;61501;43.316;5.372;2022-11-04T06:09:49;7.10;;;2.20;;
73276;SDS011;61501;43.316;5.372;2022-11-04T06:12:15;6.00;;;2.25;;
73276;SDS011;61501;43.316;5.372;2022-11-04T06:14:41;6.25;;;2.03;;
73276;SDS011;61501;43.316;5.372;2022-11-04T06:17:07;8.10;;;2.00;;
73276;SDS011;61501;43.316;5.372;2022-11-04T06:19:43;4.97;;;1.80;;
73276;SDS011;61501;43.316;5.372;2022-11-04T06:22:10;7.35;;;2.63;;
73276;SDS011;61501;43.316;5.372;2022-11-04T06:24:37;8.45;;;2.58;;
73276;SDS011;61501;43.316;5.372;2022-11-04T06:27:03;5.60;;;2.15;;
73276;SDS011;61501;43.316;5.372;2022-11-04T06:29:28;9.85;;;2.22;;
73276;SDS011;61501;43.316;5.372;2022-11-04T06:31:54;7.53;;;1.92;;
73276;SDS011;61501;43.316;5.372;2022-11-04T06:34:20;6.72;;;2.33;;
73276;SDS011;61501;43.316;5.372;2022-11-04T06:36:46;6.50;;;2.50;;
73276;SDS011;61501;43.316;5.372;2022-11-04T06:39:12;8.02;;;2.17;;
73276;SDS011;61501;43.316;5.372;2022-11-04T06:41:38;11.38;;;2.63;;
73276;SDS011;61501;43.316;5.372;2022-11-04T06:44:04;5.95;;;1.88;;
73276;SDS011;61501;43.316;5.372;2022-11-04T06:46:36;9.52;;;2.53;;
73276;SDS011;61501;43.316;5.372;2022-11-04T06:49:09;9.07;;;2.47;;
73276;SDS011;61501;43.316;5.372;2022-11-04T06:51:41;7.45;;;2.03;;
73276;SDS011;61501;43.316;5.372;2022-11-04T06:54:07;8.02;;;2.10;;
73276;SDS011;61501;43.316;5.372;2022-11-04T06:56:33;8.50;;;2.47;;
73276;SDS011;61501;43.316;5.372;2022-11-04T06:58:59;9.35;;;2.80;;
73276;SDS011;61501;43.316;5.372;2022-11-04T07:01:25;10.75;;;2.42;;
73276;SDS011;61501;43.316;5.372;2022-11-04T07:03:53;7.78;;;2.10;;
73276;SDS011;61501;43.316;5.372;2022-11-04T07:06:21;6.97;;;1.77;;
73276;SDS011;61501;43.316;5.372;2022-11-04T07:08:47;6.40;;;1.92;;
73276;SDS011;61501;43.316;5.372;2022-11-04T07:11:15;6.35;;;2.10;;
73276;SDS011;61501;43.316;5.372;2022-11-04T07:13:42;5.78;;;2.05;;
73276;SDS011;61501;43.316;5.372;2022-11-04T07:16:08;7.93;;;2.50;;
73276;SDS011;61501;43.316;5.372;2022-11-04T07:18:34;10.15;;;2.63;;
73276;SDS011;61501;43.316;5.372;2022-11-04T07:21:00;8.38;;;2.17;;
73276;SDS011;61501;43.316;5.372;2022-11-04T07:23:26;6.55;;;2.25;;
73276;SDS011;61501;43.316;5.372;2022-11-04T07:25:52;11.45;;;2.50;;
73276;SDS011;61501;43.316;5.372;2022-11-04T07:28:18;10.32;;;2.58;;
73276;SDS011;61501;43.316;5.372;2022-11-04T07:30:45;7.75;;;2.47;;
73276;SDS011;61501;43.316;5.372;2022-11-04T07:33:10;7.28;;;2.53;;
73276;SDS011;61501;43.316;5.372;2022-11-04T07:35:36;9.95;;;2.67;;
73276;SDS011;61501;43.316;5.372;2022-11-04T07:38:03;10.02;;;2.92;;
73276;SDS011;61501;43.316;5.372;2022-11-04T07:40:29;6.93;;;2.65;;
73276;SDS011;61501;43.316;5.372;2022-11-04T07:42:58;7.53;;;2.00;;
73276;SDS011;61501;43.316;5.372;2022-11-04T07:45:24;8.95;;;2.72;;
73276;SDS011;61501;43.316;5.372;2022-11-04T07:47:50;10.15;;;3.83;;
73276;SDS011;61501;43.316;5.372;2022-11-04T07:50:16;9.88;;;2.60;;
73276;SDS011;61501;43.316;5.372;2022-11-04T07:52:44;5.80;;;2.17;;
73276;SDS011;61501;43.316;5.372;2022-11-04T07:55:09;6.78;;;2.45;;
73276;SDS011;61501;43.316;5.372;2022-11-04T07:57:37;6.30;;;3.30;;
73276;SDS011;61501;43.316;5.372;2022-11-04T08:00:03;9.20;;;3.10;;
73276;SDS011;61501;43.316;5.372;2022-11-04T08:02:33;11.02;;;3.30;;
73276;SDS011;61501;43.316;5.372;2022-11-04T08:04:59;14.98;;;4.00;;
73276;SDS011;61501;43.316;5.372;2022-11-04T08:07:24;10.05;;;2.65;;
73276;SDS011;61501;43.316;5.372;2022-11-04T08:09:50;25.63;;;4.05;;
73276;SDS011;61501;43.316;5.372;2022-11-04T08:12:15;10.73;;;2.80;;
73276;SDS011;61501;43.316;5.372;2022-11-04T08:14:41;10.23;;;2.80;;
73276;SDS011;61501;43.316;5.372;2022-11-04T08:17:06;10.20;;;2.63;;
73276;SDS011;61501;43.316;5.372;2022-11-04T08:19:32;12.55;;;2.70;;
73276;SDS011;61501;43.316;5.372;2022-11-04T08:21:58;10.52;;;2.58;;
73276;SDS011;61501;43.316;5.372;2022-11-04T08:24:23;12.88;;;2.80;;
73276;SDS011;61501;43.316;5.372;2022-11-04T08:26:49;25.75;;;3.53;;
73276;SDS011;61501;43.316;5.372;2022-11-04T08:29:15;7.45;;;2.38;;
73276;SDS011;61501;43.316;5.372;2022-11-04T08:31:41;10.00;;;2.80;;
73276;SDS011;61501;43.316;5.372;2022-11-04T08:34:06;9.52;;;2.90;;
73276;SDS011;61501;43.316;5.372;2022-11-04T08:36:33;8.68;;;2.60;;
73276;SDS011;61501;43.316;5.372;2022-11-04T08:39:00;8.68;;;2.70;;
73276;SDS011;61501;43.316;5.372;2022-11-04T08:41:29;6.32;;;2.42;;
73276;SDS011;61501;43.316;5.372;2022-11-04T08:43:56;8.80;;;2.83;;
73276;SDS011;61501;43.316;5.372;2022-11-04T08:46:25;7.53;;;2.58;;
73276;SDS011;61501;43.316;5.372;2022-11-04T08:48:52;9.93;;;3.00;;
73276;SDS011;61501;43.316;5.372;2022-11-04T08:51:19;7.93;;;2.92;;
73276;SDS011;61501;43.316;5.372;2022-11-04T08:53:46;11.57;;;3.42;;
73276;SDS011;61501;43.316;5.372;2022-11-04T08:56:14;9.48;;;2.50;;
73276;SDS011;61501;43.316;5.372;2022-11-04T08:58:41;10.30;;;2.70;;
73276;SDS011;61501;43.316;5.372;2022-11-04T09:01:07;5.47;;;2.28;;
73276;SDS011;61501;43.316;5.372;2022-11-04T09:03:35;6.93;;;2.38;;
73276;SDS011;61501;43.316;5.372;2022-11-04T09:06:03;9.00;;;3.25;;
73276;SDS011;61501;43.316;5.372;2022-11-04T09:08:33;8.32;;;2.85;;
73276;SDS011;61501;43.316;5.372;2022-11-04T09:10:58;9.45;;;2.35;;
73276;SDS011;61501;43.316;5.372;2022-11-04T09:13:25;10.35;;;2.70;;
73276;SDS011;61501;43.316;5.372;2022-11-04T09:15:51;9.02;;;2.50;;
73276;SDS011;61501;43.316;5.372;2022-11-04T09:18:17;9.70;;;3.05;;
73276;SDS011;61501;43.316;5.372;2022-11-04T09:20:43;10.02;;;3.28;;
73276;SDS011;61501;43.316;5.372;2022-11-04T09:23:08;7.28;;;2.65;;
73276;SDS011;61501;43.316;5.372;2022-11-04T09:25:35;9.18;;;2.85;;
73276;SDS011;61501;43.316;5.372;2022-11-04T09:28:00;10.95;;;3.10;;
73276;SDS011;61501;43.316;5.372;2022-11-04T09:30:26;11.25;;;2.72;;
73276;SDS011;61501;43.316;5.372;2022-11-04T09:32:52;9.07;;;2.65;;
73276;SDS011;61501;43.316;5.372;2022-11-04T09:35:18;9.55;;;2.42;;
73276;SDS011;61501;43.316;5.372;2022-11-04T09:37:44;6.50;;;2.03;;
73276;SDS011;61501;43.316;5.372;2022-11-04T09:40:14;10.10;;;2.47;;
73276;SDS011;61501;43.316;5.372;2022-11-04T09:42:48;13.50;;;2.65;;
73276;SDS011;61501;43.316;5.372;2022-11-04T09:45:18;7.40;;;2.40;;
73276;SDS011;61501;43.316;5.372;2022-11-04T09:47:51;8.98;;;2.67;;
73276;SDS011;61501;43.316;5.372;2022-11-04T09:50:22;9.15;;;2.28;;
73276;SDS011;61501;43.316;5.372;2022-11-04T09:52:54;7.78;;;2.33;;
73276;SDS011;61501;43.316;5.372;2022-11-04T09:58:08;8.60;;;2.58;;
73276;SDS011;61501;43.316;5.372;2022-11-04T10:00:37;8.27;;;2.20;;
73276;SDS011;61501;43.316;5.372;2022-11-04T10:09:02;7.60;;;2.17;;
73276;SDS011;61501;43.316;5.372;2022-11-04T10:12:01;13.18;;;2.88;;
73276;SDS011;61501;43.316;5.372;2022-11-04T10:14:41;6.43;;;1.42;;
73276;SDS011;61501;43.316;5.372;2022-11-04T10:22:32;8.02;;;1.83;;
73276;SDS011;61501;43.316;5.372;2022-11-04T10:25:07;7.32;;;1.63;;
73276;SDS011;61501;43.316;5.372;2022-11-04T10:27:40;9.80;;;2.50;;
73276;SDS011;61501;43.316;5.372;2022-11-04T10:30:13;7.93;;;1.95;;
73276;SDS011;61501;43.316;5.372;2022-11-04T10:35:27;6.72;;;1.77;;
73276;SDS011;61501;43.316;5.372;2022-11-04T10:38:00;7.68;;;1.70;;
73276;SDS011;61501;43.316;5.372;2022-11-04T10:40:39;10.25;;;1.92;;
73276;SDS011;61501;43.316;5.372;2022-11-04T10:43:09;10.07;;;1.77;;
73276;SDS011;61501;43.316;5.372;2022-11-04T10:45:42;13.90;;;2.20;;
73276;SDS011;61501;43.316;5.372;2022-11-04T10:48:32;11.93;;;1.98;;
73276;SDS011;61501;43.316;5.372;2022-11-04T10:51:04;16.23;;;2.17;;
73276;SDS011;61501;43.316;5.372;2022-11-04T10:53:31;6.13;;;1.52;;
73276;SDS011;61501;43.316;5.372;2022-11-04T10:58:34;8.10;;;1.50;;
73276;SDS011;61501;43.316;5.372;2022-11-04T11:04:23;6.32;;;1.40;;
73276;SDS011;61501;43.316;5.372;2022-11-04T11:06:50;6.47;;;2.05;;
73276;SDS011;61501;43.316;5.372;2022-11-04T11:09:25;5.05;;;1.75;;
73276;SDS011;61501;43.316;5.372;2022-11-04T11:12:17;11.82;;;2.75;;
73276;SDS011;61501;43.316;5.372;2022-11-04T11:14:50;9.35;;;2.15;;
73276;SDS011;61501;43.316;5.372;2022-11-04T11:17:18;6.30;;;1.20;;
73276;SDS011;61501;43.316;5.372;2022-11-04T11:20:02;3.90;;;1.30;;
73276;SDS011;61501;43.316;5.372;2022-11-04T11:22:44;5.30;;;1.00;;
73276;SDS011;61501;43.316;5.372;2022-11-04T11:33:02;7.20;;;1.58;;
73276;SDS011;61501;43.316;5.372;2022-11-04T11:35:35;4.27;;;1.30;;
73276;SDS011;61501;43.316;5.372;2022-11-04T11:38:21;9.00;;;1.55;;
73276;SDS011;61501;43.316;5.372;2022-11-04T11:43:35;2.40;;;0.82;;
73276;SDS011;61501;43.316;5.372;2022-11-04T11:46:05;3.63;;;1.17;;
73276;SDS011;61501;43.316;5.372;2022-11-04T11:51:02;5.53;;;2.00;;
73276;SDS011;61501;43.316;5.372;2022-11-04T11:53:28;2.88;;;1.10;;
73276;SDS011;61501;43.316;5.372;2022-11-04T12:01:48;4.47;;;2.00;;
73276;SDS011;61501;43.316;5.372;2022-11-04T12:04:18;3.10;;;1.10;;
73276;SDS011;61501;43.316;5.372;2022-11-04T12:12:17;6.50;;;1.60;;
73276;SDS011;61501;43.316;5.372;2022-11-04T12:25:47;7.75;;;2.00;;
73276;SDS011;61501;43.316;5.372;2022-11-04T12:43:10;4.80;;;1.30;;
73276;SDS011;61501;43.316;5.372;2022-11-04T12:48:09;3.97;;;1.40;;
73276;SDS011;61501;43.316;5.372;2022-11-04T12:58:41;8.13;;;1.80;;
73276;SDS011;61501;43.316;5.372;2022-11-04T13:01:14;4.30;;;1.30;;
73276;SDS011;61501;43.316;5.372;2022-11-04T13:04:03;3.88;;;1.33;;
73276;SDS011;61501;43.316;5.372;2022-11-04T13:06:38;3.92;;;0.98;;
73276;SDS011;61501;43.316;5.372;2022-11-04T13:09:17;8.77;;;1.50;;
73276;SDS011;61501;43.316;5.372;2022-11-04T13:11:54;5.75;;;1.67;;
73276;SDS011;61501;43.316;5.372;2022-11-04T13:14:28;6.65;;;1.80;;
73276;SDS011;61501;43.316;5.372;2022-11-04T13:17:05;6.13;;;1.90;;
73276;SDS011;61501;43.316;5.372;2022-11-04T13:22:09;12.43;;;1.35;;
73276;SDS011;61501;43.316;5.372;2022-11-04T13:24:40;3.97;;;1.55;;
73276;SDS011;61501;43.316;5.372;2022-11-04T13:27:23;2.78;;;0.75;;
73276;SDS011;61501;43.316;5.372;2022-11-04T13:29:55;3.70;;;1.08;;
73276;SDS011;61501;43.316;5.372;2022-11-04T13:32:34;3.17;;;1.10;;
73276;SDS011;61501;43.316;5.372;2022-11-04T13:35:24;4.32;;;1.63;;
73276;SDS011;61501;43.316;5.372;2022-11-04T13:38:04;3.05;;;1.02;;
73276;SDS011;61501;43.316;5.372;2022-11-04T13:40:42;6.00;;;1.35;;
73276;SDS011;61501;43.316;5.372;2022-11-04T13:48:38;5.32;;;1.20;;
73276;SDS011;61501;43.316;5.372;2022-11-04T13:51:25;5.88;;;1.30;;
73276;SDS011;61501;43.316;5.372;2022-11-04T13:54:06;17.70;;;3.03;;
73276;SDS011;61501;43.316;5.372;2022-11-04T14:16:09;23.45;;;2.92;;
73276;SDS011;61501;43.316;5.372;2022-11-04T14:18:53;13.73;;;3.05;;
73276;SDS011;61501;43.316;5.372;2022-11-04T14:21:21;7.53;;;1.65;;
73276;SDS011;61501;43.316;5.372;2022-11-04T14:23:53;5.78;;;1.58;;
73276;SDS011;61501;43.316;5.372;2022-11-04T14:26:53;4.65;;;1.60;;
73276;SDS011;61501;43.316;5.372;2022-11-04T14:29:23;5.45;;;1.52;;
73276;SDS011;61501;43.316;5.372;2022-11-04T14:31:54;7.10;;;1.50;;
73276;SDS011;61501;43.316;5.372;2022-11-04T14:34:26;3.55;;;1.00;;
73276;SDS011;61501;43.316;5.372;2022-11-04T14:36:57;5.13;;;1.25;;
73276;SDS011;61501;43.316;5.372;2022-11-04T14:39:29;3.08;;;1.30;;
73276;SDS011;61501;43.316;5.372;2022-11-04T14:42:02;5.30;;;1.38;;
73276;SDS011;61501;43.316;5.372;2022-11-04T14:44:45;4.40;;;1.02;;
73276;SDS011;61501;43.316;5.372;2022-11-04T14:55:11;2.70;;;0.88;;
73276;SDS011;61501;43.316;5.372;2022-11-04T14:57:40;3.65;;;1.02;;
73276;SDS011;61501;43.316;5.372;2022-11-04T15:02:46;3.55;;;1.25;;
73276;SDS011;61501;43.316;5.372;2022-11-04T15:05:21;2.70;;;1.65;;
73276;SDS011;61501;43.316;5.372;2022-11-04T15:07:50;3.60;;;1.05;;
73276;SDS011;61501;43.316;5.372;2022-11-04T15:10:23;1.85;;;0.70;;
73276;SDS011;61501;43.316;5.372;2022-11-04T15:12:57;3.30;;;0.93;;
73276;SDS011;61501;43.316;5.372;2022-11-04T15:17:57;2.58;;;0.60;;
73276;SDS011;61501;43.316;5.372;2022-11-04T15:20:29;2.03;;;0.65;;
73276;SDS011;61501;43.316;5.372;2022-11-04T15:22:56;4.60;;;1.05;;
73276;SDS011;61501;43.316;5.372;2022-11-04T15:25:24;1.73;;;0.82;;
73276;SDS011;61501;43.316;5.372;2022-11-04T15:27:50;1.08;;;0.60;;
73276;SDS011;61501;43.316;5.372;2022-11-04T15:30:18;2.03;;;0.70;;
73276;SDS011;61501;43.316;5.372;2022-11-04T15:35:24;2.33;;;0.60;;
73276;SDS011;61501;43.316;5.372;2022-11-04T15:37:52;5.45;;;0.80;;
73276;SDS011;61501;43.316;5.372;2022-11-04T15:40:19;3.17;;;0.70;;
73276;SDS011;61501;43.316;5.372;2022-11-04T15:42:46;1.48;;;0.60;;
73276;SDS011;61501;43.316;5.372;2022-11-04T15:51:07;1.75;;;0.70;;
73276;SDS011;61501;43.316;5.372;2022-11-04T15:53:35;2.90;;;0.85;;
73276;SDS011;61501;43.316;5.372;2022-11-04T15:56:18;3.10;;;0.82;;
73276;SDS011;61501;43.316;5.372;2022-11-04T15:58:47;1.67;;;0.65;;
73276;SDS011;61501;43.316;5.372;2022-11-04T16:01:14;1.33;;;0.60;;
73276;SDS011;61501;43.316;5.372;2022-11-04T16:03:51;2.35;;;0.98;;
73276;SDS011;61501;43.316;5.372;2022-11-04T16:06:36;3.20;;;0.90;;
73276;SDS011;61501;43.316;5.372;2022-11-04T16:14:30;8.02;;;1.60;;
73276;SDS011;61501;43.316;5.372;2022-11-04T16:16:56;1.17;;;0.80;;
73276;SDS011;61501;43.316;5.372;2022-11-04T16:19:23;4.10;;;0.80;;
73276;SDS011;61501;43.316;5.372;2022-11-04T16:22:04;3.22;;;0.80;;
73276;SDS011;61501;43.316;5.372;2022-11-04T16:24:33;4.60;;;1.10;;
73276;SDS011;61501;43.316;5.372;2022-11-04T16:27:03;2.63;;;0.70;;
73276;SDS011;61501;43.316;5.372;2022-11-04T16:29:34;1.13;;;0.65;;
73276;SDS011;61501;43.316;5.372;2022-11-04T16:34:39;1.38;;;0.60;;
73276;SDS011;61501;43.316;5.372;2022-11-04T16:37:05;1.58;;;0.70;;
73276;SDS011;61501;43.316;5.372;2022-11-04T16:39:31;3.25;;;0.73;;
73276;SDS011;61501;43.316;5.372;2022-11-04T16:41:56;3.40;;;0.70;;
73276;SDS011;61501;43.316;5.372;2022-11-04T16:44:23;5.10;;;0.88;;
73276;SDS011;61501;43.316;5.372;2022-11-04T16:46:50;2.05;;;0.55;;
73276;SDS011;61501;43.316;5.372;2022-11-04T16:49:17;3.10;;;0.80;;
73276;SDS011;61501;43.316;5.372;2022-11-04T16:51:44;2.17;;;0.60;;
73276;SDS011;61501;43.316;5.372;2022-11-04T16:54:11;2.67;;;1.52;;
73276;SDS011;61501;43.316;5.372;2022-11-04T16:56:37;2.17;;;0.90;;
73276;SDS011;61501;43.316;5.372;2022-11-04T16:59:03;3.85;;;1.40;;
73276;SDS011;61501;43.316;5.372;2022-11-04T17:01:28;2.35;;;1.48;;
73276;SDS011;61501;43.316;5.372;2022-11-04T17:03:55;1.38;;;0.70;;
73276;SDS011;61501;43.316;5.372;2022-11-04T17:06:21;1.52;;;0.70;;
73276;SDS011;61501;43.316;5.372;2022-11-04T17:08:47;3.55;;;1.00;;
73276;SDS011;61501;43.316;5.372;2022-11-04T17:11:13;2.33;;;1.00;;
73276;SDS011;61501;43.316;5.372;2022-11-04T17:13:38;1.65;;;0.88;;
73276;SDS011;61501;43.316;5.372;2022-11-04T17:16:04;2.05;;;0.95;;
73276;SDS011;61501;43.316;5.372;2022-11-04T17:18:31;1.48;;;0.70;;
73276;SDS011;61501;43.316;5.372;2022-11-04T17:20:58;3.40;;;1.30;;
73276;SDS011;61501;43.316;5.372;2022-11-04T17:23:28;1.88;;;0.80;;
73276;SDS011;61501;43.316;5.372;2022-11-04T17:25:54;4.18;;;1.05;;
73276;SDS011;61501;43.316;5.372;2022-11-04T17:28:19;1.25;;;0.88;;
73276;SDS011;61501;43.316;5.372;2022-11-04T17:30:45;2.67;;;1.00;;
73276;SDS011;61501;43.316;5.372;2022-11-04T17:33:12;2.83;;;1.00;;
73276;SDS011;61501;43.316;5.372;2022-11-04T17:35:39;2.17;;;0.90;;
73276;SDS011;61501;43.316;5.372;2022-11-04T17:38:06;2.58;;;1.10;;
73276;SDS011;61501;43.316;5.372;2022-11-04T17:40:32;3.25;;;0.82;;
73276;SDS011;61501;43.316;5.372;2022-11-04T17:43:17;1.38;;;0.98;;
73276;SDS011;61501;43.316;5.372;2022-11-04T17:46:01;2.50;;;1.08;;
73276;SDS011;61501;43.316;5.372;2022-11-04T17:48:47;2.67;;;0.88;;
73276;SDS011;61501;43.316;5.372;2022-11-04T17:51:12;1.63;;;0.98;;